Pagina principale
METAR-TAF:

METAR-TAF

Aeroporti :

Khorramabad, Iran

latitudine: 33-26-11N, longitudine: 048-17-09E, altezza: 1155 m

Osservazione

Il bollettino è stato emesso 11 ore e 0 minuti fa, alle 13:00 UTC
Vento 6 kt da sud-ovest
Temperature 37°C
Umidità 10%
Pressione 1013 hPa
Visibilità 10 km o più
Poco nuvoloso ad un'altezza di 4000 ft, Cumulo congesto.

METAR: OICK 291300Z 23006KT 9999 FEW040TCU 37/00 Q1013

Ora: 04:30 (00:00 UTC)


TAF: mancante

Osservazioni e previsioni meteorologiche di più di 4000 aeroporti (messaggi METAR e TAF).

Le stazioni disponibili sono rappresentate dai dischi gialli e rossi sulla carta.

Puntare il mouse per vedere il nome della stazione.

Clicca sopra per visualizzare le osservazioni e previsioni meteorologiche.

Per cambiare la mappa : fare clic sui pulsanti verdi con una croce nera per ingrandire, il pulsante verde con un trattino per diminuire, o sulla freccia verde per le mappe adiacenti.


METAR-TAF: